Time;durP1;ratioP1;P1;durP2;ratioP2;P2;SDS_P1;SDS_P2;PMS_P1;PMS_P2;Temp;Humidity;BMP_temperature;BMP_pressure;BME280_temperature;BME280_humidity;BME280_pressure;Samples;Min_cycle;Max_cycle;Signal;HPM_P1;HPM_P2
2023/11/27 00:02:06;;;;;;;1999.90;999.90;;;;;;;-1.49;74.33;95851.06;5115679;28;20488;-61
2023/11/27 00:04:33;;;;;;;1999.90;999.90;;;;;;;-1.48;74.76;95857.91;5115639;28;20523;-59
2023/11/27 00:07:02;;;;;;;1999.90;999.90;;;;;;;-1.54;75.07;95848.47;5115622;28;20133;-60
2023/11/27 00:09:29;;;;;;;1999.90;999.90;;;;;;;-1.65;75.53;95854.47;5115530;28;20043;-62
2023/11/27 00:11:57;;;;;;;1999.90;999.90;;;;;;;-1.75;75.61;95842.53;5115427;28;20047;-59
2023/11/27 00:14:24;;;;;;;1999.90;999.90;;;;;;;-1.83;75.22;95839.13;5115513;28;20047;-61
2023/11/27 00:16:51;;;;;;;1999.90;999.90;;;;;;;-1.81;74.72;95858.78;5115461;28;20055;-61
2023/11/27 00:19:18;;;;;;;1999.90;999.90;;;;;;;-1.79;75.05;95853.66;5115023;28;20089;-60
2023/11/27 00:21:45;;;;;;;1999.90;999.90;;;;;;;-1.80;74.36;95857.06;5115461;28;20054;-60
2023/11/27 00:24:13;;;;;;;1999.90;999.90;;;;;;;-1.78;74.10;95858.78;5115376;28;20561;-63
2023/11/27 00:26:40;;;;;;;1999.90;999.90;;;;;;;-1.80;73.87;95862.22;5115312;28;20059;-60
2023/11/27 00:29:07;;;;;;;1999.90;999.90;;;;;;;-1.78;73.78;95861.34;5115251;28;20515;-61
2023/11/27 00:31:35;;;;;;;1999.90;999.90;;;;;;;-1.76;73.52;95865.59;5115000;28;20503;-63
2023/11/27 00:34:02;;;;;;;1999.90;999.90;;;;;;;-1.78;73.79;95863.03;5115047;28;20044;-60
2023/11/27 00:36:29;;;;;;;1999.90;999.90;;;;;;;-1.79;73.86;95859.63;5115029;28;20462;-62
2023/11/27 00:38:56;;;;;;;1999.90;999.90;;;;;;;-1.84;74.10;95855.38;5115226;28;20043;-64
2023/11/27 00:41:24;;;;;;;1999.90;999.90;;;;;;;-1.86;74.26;95862.19;5115250;28;20062;-61
2023/11/27 00:43:52;;;;;;;1999.90;999.90;;;;;;;-1.89;73.44;95863.06;5114951;28;20405;-60
2023/11/27 00:46:20;;;;;;;1999.90;999.90;;;;;;;-1.91;73.21;95875.88;5114833;28;20452;-62
2023/11/27 00:48:47;;;;;;;1999.90;999.90;;;;;;;-1.89;73.80;95882.72;5114863;28;20050;-63
2023/11/27 00:51:14;;;;;;;1999.90;999.90;;;;;;;-1.91;74.03;95892.97;5114622;28;20485;-64
2023/11/27 00:53:41;;;;;;;1999.90;999.90;;;;;;;-1.97;74.03;95888.69;5114811;28;20040;-60
2023/11/27 00:56:09;;;;;;;1999.90;999.90;;;;;;;-2.04;74.31;95885.25;5114698;28;20048;-63
2023/11/27 00:58:38;;;;;;;1999.90;999.90;;;;;;;-2.14;74.48;95878.41;5114571;28;20048;-61
2023/11/27 01:01:06;;;;;;;1999.90;999.90;;;;;;;-2.22;75.22;95887.78;5114578;28;20075;-63
2023/11/27 01:03:33;;;;;;;1999.90;999.90;;;;;;;-2.23;75.48;95881.81;5114591;28;20086;-60
2023/11/27 01:06:00;;;;;;;1999.90;999.90;;;;;;;-2.28;75.84;95888.66;5114422;28;20044;-62
2023/11/27 01:08:27;;;;;;;1999.90;999.90;;;;;;;-2.39;76.51;95886.03;5114443;28;20055;-63
2023/11/27 01:10:54;;;;;;;1999.90;999.90;;;;;;;-2.42;76.38;95901.41;5113546;28;20052;-63
2023/11/27 01:13:21;;;;;;;1999.90;999.90;;;;;;;-2.46;77.13;95909.94;5114366;28;20488;-63
2023/11/27 01:15:50;;;;;;;1999.90;999.90;;;;;;;-2.47;77.17;95903.94;5114479;28;20074;-63
2023/11/27 01:18:17;;;;;;;1999.90;999.90;;;;;;;-2.51;77.56;95903.94;5114232;28;20039;-63
2023/11/27 01:20:45;;;;;;;1999.90;999.90;;;;;;;-2.53;78.11;95909.03;5114047;28;20050;-60
2023/11/27 01:23:13;;;;;;;1999.90;999.90;;;;;;;-2.58;78.29;95918.44;5114167;28;20066;-63
2023/11/27 01:25:40;;;;;;;1999.90;999.90;;;;;;;-2.51;78.93;95909.91;5114078;28;20048;-60
2023/11/27 01:28:08;;;;;;;1999.90;999.90;;;;;;;-2.44;79.49;95910.81;5114108;28;20047;-62
2023/11/27 01:30:35;;;;;;;1999.90;999.90;;;;;;;-2.44;79.18;95911.66;5113923;28;20075;-63
2023/11/27 01:33:05;;;;;;;1999.90;999.90;;;;;;;-2.46;78.86;95908.25;5114130;28;20044;-61
2023/11/27 01:35:32;;;;;;;1999.90;999.90;;;;;;;-2.55;79.56;95906.50;5113943;28;20043;-60
2023/11/27 01:37:59;;;;;;;1999.90;999.90;;;;;;;-2.50;79.69;95910.78;5113887;28;20048;-63
2023/11/27 01:40:26;;;;;;;1999.90;999.90;;;;;;;-2.56;79.28;95911.63;5113908;28;20062;-60
2023/11/27 01:42:53;;;;;;;1999.90;999.90;;;;;;;-2.59;78.74;95920.13;5113894;28;20040;-62
2023/11/27 01:45:20;;;;;;;1999.90;999.90;;;;;;;-2.53;78.79;95909.03;5113925;28;20126;-61
2023/11/27 01:47:47;;;;;;;1999.90;999.90;;;;;;;-2.47;79.20;95910.81;5113786;28;20043;-62
2023/11/27 01:50:16;;;;;;;1999.90;999.90;;;;;;;-2.42;79.53;95914.22;5113762;28;20047;-59
2023/11/27 01:52:43;;;;;;;1999.90;999.90;;;;;;;-2.37;80.01;95919.38;5113632;28;20501;-63
2023/11/27 01:55:12;;;;;;;1999.90;999.90;;;;;;;-2.33;79.83;95924.50;5113748;28;20097;-62
2023/11/27 01:57:39;;;;;;;1999.90;999.90;;;;;;;-2.31;79.93;95919.38;5113634;28;20100;-61
2023/11/27 02:00:11;;;;;;;1999.90;999.90;;;;;;;-2.28;79.94;95924.53;5113574;28;20405;-62
2023/11/27 02:02:43;;;;;;;1999.90;999.90;;;;;;;-2.34;79.49;95915.13;5113626;28;20092;-64
2023/11/27 02:05:10;;;;;;;1999.90;999.90;;;;;;;-2.32;79.55;95920.25;5113649;28;20063;-61
2023/11/27 02:07:38;;;;;;;1999.90;999.90;;;;;;;-2.34;78.86;95917.69;5113607;28;20130;-62
2023/11/27 02:10:06;;;;;;;1999.90;999.90;;;;;;;-2.30;78.46;95927.06;5113546;28;20508;-63
2023/11/27 02:12:33;;;;;;;1999.90;999.90;;;;;;;-2.17;78.49;95921.97;5113403;28;20055;-62
2023/11/27 02:15:00;;;;;;;1999.90;999.90;;;;;;;-2.14;77.99;95921.97;5113373;28;20048;-63
2023/11/27 02:17:28;;;;;;;1999.90;999.90;;;;;;;-2.07;77.72;95935.66;5113406;28;20503;-62
2023/11/27 02:19:55;;;;;;;1999.90;999.90;;;;;;;-2.00;77.24;95927.13;5113139;28;20518;-59
2023/11/27 02:22:24;;;;;;;1999.90;999.90;;;;;;;-1.96;77.15;95933.13;5114542;28;20179;-61
2023/11/27 02:24:52;;;;;;;1999.90;999.90;;;;;;;-1.91;76.93;95937.41;5117522;28;20083;-64
2023/11/27 02:27:20;;;;;;;1999.90;999.90;;;;;;;-1.93;76.84;95943.38;5117609;28;20047;-63
2023/11/27 02:29:48;;;;;;;1999.90;999.90;;;;;;;-1.88;76.68;95946.81;5117609;28;20082;-61
2023/11/27 02:32:15;;;;;;;1999.90;999.90;;;;;;;-1.93;76.41;95941.69;5117450;28;20059;-61
2023/11/27 02:34:47;;;;;;;1999.90;999.90;;;;;;;-1.86;76.51;95940.00;5117539;28;20096;-61
2023/11/27 02:37:14;;;;;;;1999.90;999.90;;;;;;;-1.81;76.46;95947.66;5117445;28;20058;-58
2023/11/27 02:39:41;;;;;;;1999.90;999.90;;;;;;;-1.76;76.49;95957.94;5117350;28;20048;-62
2023/11/27 02:42:10;;;;;;;1999.90;999.90;;;;;;;-1.76;76.58;95953.66;5117387;28;20051;-61
2023/11/27 02:44:37;;;;;;;1999.90;999.90;;;;;;;-1.81;76.49;95952.78;5117295;28;20116;-63
2023/11/27 02:47:05;;;;;;;1999.90;999.90;;;;;;;-1.80;76.85;95957.94;5117235;28;20072;-62
2023/11/27 02:49:32;;;;;;;1999.90;999.90;;;;;;;-1.87;77.34;95948.53;5117240;28;20128;-62
2023/11/27 02:51:59;;;;;;;1999.90;999.90;;;;;;;-1.90;77.61;95958.75;5117130;28;20062;-61
2023/11/27 02:54:26;;;;;;;1999.90;999.90;;;;;;;-1.93;77.82;95963.88;5117085;28;20079;-61
2023/11/27 02:56:54;;;;;;;1999.90;999.90;;;;;;;-1.98;77.59;95966.47;5117153;28;20404;-63
2023/11/27 02:59:23;;;;;;;1999.90;999.90;;;;;;;-2.05;78.21;95969.84;5116935;28;20515;-63
2023/11/27 03:01:50;;;;;;;1999.90;999.90;;;;;;;-2.12;78.45;95980.94;5116972;28;20075;-62
2023/11/27 03:04:17;;;;;;;1999.90;999.90;;;;;;;-2.17;78.98;95979.22;5116937;28;20126;-60
2023/11/27 03:06:45;;;;;;;1999.90;999.90;;;;;;;-2.31;79.29;95974.06;5116809;28;20104;-61
2023/11/27 03:09:15;;;;;;;1999.90;999.90;;;;;;;-2.33;79.29;95977.44;5116795;28;20039;-63
2023/11/27 03:11:43;;;;;;;1999.90;999.90;;;;;;;-2.38;78.67;95977.44;5116624;28;20481;-60
2023/11/27 03:14:09;;;;;;;1999.90;999.90;;;;;;;-2.43;78.75;95982.56;5116701;28;20052;-63
2023/11/27 03:16:38;;;;;;;1999.90;999.90;;;;;;;-2.41;77.63;95974.84;5116559;28;20086;-60
2023/11/27 03:19:05;;;;;;;1999.90;999.90;;;;;;;-2.45;77.46;95985.94;5116442;28;20044;-63
2023/11/27 03:21:32;;;;;;;1999.90;999.90;;;;;;;-2.44;77.77;95974.88;5116623;28;20481;-62
2023/11/27 03:23:59;;;;;;;1999.90;999.90;;;;;;;-2.47;77.14;95985.09;5116547;28;20392;-62
2023/11/27 03:26:26;;;;;;;1999.90;999.90;;;;;;;-2.49;75.97;95985.09;5116487;28;20047;-64
2023/11/27 03:28:53;;;;;;;1999.90;999.90;;;;;;;-2.54;75.17;95990.19;5116477;28;20097;-61
2023/11/27 03:31:20;;;;;;;1999.90;999.90;;;;;;;-2.60;75.25;95991.84;5116206;28;20082;-62
2023/11/27 03:33:49;;;;;;;1999.90;999.90;;;;;;;-2.59;74.00;95996.13;5115813;28;20048;-64
2023/11/27 03:36:17;;;;;;;1999.90;999.90;;;;;;;-2.55;73.81;95998.72;5116225;28;20043;-62
2023/11/27 03:38:44;;;;;;;1999.90;999.90;;;;;;;-2.60;72.58;96000.41;5116379;28;20040;-64
2023/11/27 03:41:17;;;;;;;1999.90;999.90;;;;;;;-2.56;72.85;95996.16;5116255;28;20493;-63
2023/11/27 03:43:44;;;;;;;1999.90;999.90;;;;;;;-2.56;72.90;95997.00;5116267;28;20450;-62
2023/11/27 03:46:12;;;;;;;1999.90;999.90;;;;;;;-2.52;72.03;96000.44;5116134;28;20078;-64
2023/11/27 03:48:39;;;;;;;1999.90;999.90;;;;;;;-2.50;71.21;96013.25;5116133;28;20072;-61
2023/11/27 03:51:09;;;;;;;1999.90;999.90;;;;;;;-2.46;71.72;96008.16;5116056;28;20451;-59
2023/11/27 03:53:36;;;;;;;1999.90;999.90;;;;;;;-2.52;71.09;96007.25;5116064;28;20076;-60
2023/11/27 03:56:04;;;;;;;1999.90;999.90;;;;;;;-2.75;71.52;96001.16;5115952;28;20059;-62
2023/11/27 03:58:31;;;;;;;1999.90;999.90;;;;;;;-2.68;70.91;96004.63;5115826;28;20047;-62
2023/11/27 04:00:58;;;;;;;1999.90;999.90;;;;;;;-2.65;70.66;95996.94;5115750;28;20053;-59
2023/11/27 04:03:25;;;;;;;1999.90;999.90;;;;;;;-2.55;71.32;95995.31;5115688;28;20580;-59
2023/11/27 04:05:52;;;;;;;1999.90;999.90;;;;;;;-2.49;70.82;96003.03;5115787;28;20091;-61
2023/11/27 04:08:21;;;;;;;1999.90;999.90;;;;;;;-2.44;70.22;96006.44;5115721;28;20051;-59
2023/11/27 04:10:48;;;;;;;1999.90;999.90;;;;;;;-2.48;70.56;96007.28;5115718;28;20039;-59
2023/11/27 04:13:15;;;;;;;1999.90;999.90;;;;;;;-2.66;71.44;96018.28;5115497;28;20051;-62
2023/11/27 04:15:44;;;;;;;1999.90;999.90;;;;;;;-2.72;71.59;96015.69;5115635;28;20071;-63
2023/11/27 04:18:11;;;;;;;1999.90;999.90;;;;;;;-2.67;72.19;96024.25;5115570;28;20455;-63
2023/11/27 04:20:38;;;;;;;1999.90;999.90;;;;;;;-2.68;71.90;96031.09;5115223;28;20402;-62
2023/11/27 04:23:05;;;;;;;1999.90;999.90;;;;;;;-2.80;72.23;96036.16;5115493;28;20059;-63
2023/11/27 04:25:34;;;;;;;1999.90;999.90;;;;;;;-2.89;72.72;96031.78;5115451;28;20116;-63
2023/11/27 04:28:01;;;;;;;1999.90;999.90;;;;;;;-2.97;72.75;96039.44;5115362;28;20052;-63
2023/11/27 04:30:28;;;;;;;1999.90;999.90;;;;;;;-3.02;72.49;96037.66;5115194;28;20546;-62
2023/11/27 04:32:55;;;;;;;1999.90;999.90;;;;;;;-3.07;73.10;96028.25;5115226;28;20051;-59
2023/11/27 04:35:23;;;;;;;1999.90;999.90;;;;;;;-3.07;73.81;96038.50;5115368;28;20481;-64
2023/11/27 04:37:51;;;;;;;1999.90;999.90;;;;;;;-3.08;73.46;96029.13;5115032;28;20043;-59
2023/11/27 04:40:18;;;;;;;1999.90;999.90;;;;;;;-3.16;73.99;96035.88;5115047;28;20040;-60
2023/11/27 04:42:46;;;;;;;1999.90;999.90;;;;;;;-3.22;74.05;96035.84;5115035;28;20055;-60
2023/11/27 04:45:13;;;;;;;1999.90;999.90;;;;;;;-3.27;74.43;96040.03;5114728;28;20135;-64
2023/11/27 04:47:40;;;;;;;1999.90;999.90;;;;;;;-3.32;74.40;96052.78;5114318;28;20123;-62
2023/11/27 04:50:08;;;;;;;1999.90;999.90;;;;;;;-3.33;74.63;96054.50;5114748;28;20462;-64
2023/11/27 04:52:35;;;;;;;1999.90;999.90;;;;;;;-3.37;74.68;96059.59;5114743;28;20097;-60
2023/11/27 04:55:03;;;;;;;1999.90;999.90;;;;;;;-3.46;74.46;96061.19;5114546;28;20094;-62
2023/11/27 04:57:31;;;;;;;1999.90;999.90;;;;;;;-3.49;74.64;96058.59;5114782;28;20374;-60
2023/11/27 05:00:01;;;;;;;1999.90;999.90;;;;;;;-3.55;74.99;96067.06;5114636;28;20450;-62
2023/11/27 05:02:28;;;;;;;1999.90;999.90;;;;;;;-3.57;75.22;96063.66;5114640;28;20105;-60
2023/11/27 05:04:55;;;;;;;1999.90;999.90;;;;;;;-3.59;75.41;96073.00;5114508;28;20542;-61
2023/11/27 05:07:21;;;;;;;1999.90;999.90;;;;;;;-3.60;75.27;96078.09;5114523;28;20157;-62
2023/11/27 05:09:49;;;;;;;1999.90;999.90;;;;;;;-3.67;74.94;96082.31;5114296;28;20048;-60
2023/11/27 05:12:16;;;;;;;1999.90;999.90;;;;;;;-3.72;74.93;96084.81;5114400;28;20049;-63
2023/11/27 05:14:43;;;;;;;1999.90;999.90;;;;;;;-3.75;74.84;96091.59;5114401;28;20055;-60
2023/11/27 05:17:12;;;;;;;1999.90;999.90;;;;;;;-3.81;74.75;96089.81;5114356;28;20054;-60
2023/11/27 05:19:39;;;;;;;1999.90;999.90;;;;;;;-3.91;75.13;96088.00;5114059;28;20048;-63
2023/11/27 05:22:06;;;;;;;1999.90;999.90;;;;;;;-4.02;75.48;96085.31;5114215;28;20104;-63
2023/11/27 05:24:33;;;;;;;1999.90;999.90;;;;;;;-4.05;75.43;96086.13;5114127;28;20092;-61
2023/11/27 05:27:01;;;;;;;1999.90;999.90;;;;;;;-4.08;75.99;96092.06;5114266;28;20052;-62
2023/11/27 05:29:28;;;;;;;1999.90;999.90;;;;;;;-4.09;76.26;96089.50;5114068;28;20558;-61
2023/11/27 05:31:56;;;;;;;1999.90;999.90;;;;;;;-4.09;75.96;96092.06;5113981;28;20054;-63
2023/11/27 05:34:26;;;;;;;1999.90;999.90;;;;;;;-4.12;75.96;96092.03;5114098;28;20401;-62
2023/11/27 05:36:53;;;;;;;1999.90;999.90;;;;;;;-4.12;76.12;96092.03;5114074;28;20129;-63
2023/11/27 05:39:21;;;;;;;1999.90;999.90;;;;;;;-4.15;76.45;96087.72;5113918;28;20048;-65
2023/11/27 05:41:49;;;;;;;1999.90;999.90;;;;;;;-4.12;77.11;96090.28;5114060;28;20051;-64
2023/11/27 05:44:18;;;;;;;1999.90;999.90;;;;;;;-4.14;76.76;96096.22;5114069;28;20081;-60
2023/11/27 05:46:45;;;;;;;1999.90;999.90;;;;;;;-4.13;74.71;96103.09;5113836;28;20086;-61
2023/11/27 05:49:12;;;;;;;1999.90;999.90;;;;;;;-3.98;75.47;96102.38;5113752;28;20040;-61
2023/11/27 05:51:41;;;;;;;1999.90;999.90;;;;;;;-3.91;76.18;96103.34;5113668;28;20478;-65
2023/11/27 05:54:10;;;;;;;1999.90;999.90;;;;;;;-3.76;76.06;96107.78;5113727;28;20052;-63
2023/11/27 05:56:37;;;;;;;1999.90;999.90;;;;;;;-3.65;75.18;96125.81;5113553;28;20050;-61
2023/11/27 05:59:06;;;;;;;1999.90;999.90;;;;;;;-3.49;74.74;96137.06;5113330;28;20104;-61
2023/11/27 06:01:34;;;;;;;1999.90;999.90;;;;;;;-2.98;77.03;96141.81;5113593;28;20085;-62
2023/11/27 06:04:01;;;;;;;1999.90;999.90;;;;;;;-1.47;74.15;96145.31;5113563;28;20489;-61
2023/11/27 06:06:28;;;;;;;1999.90;999.90;;;;;;;0.40;67.35;96159.81;5113649;28;20105;-63
2023/11/27 06:08:57;;;;;;;1999.90;999.90;;;;;;;1.89;59.31;96168.25;5113561;28;20066;-61
2023/11/27 06:11:24;;;;;;;1999.90;999.90;;;;;;;3.34;56.13;96167.38;5113415;28;20086;-63
2023/11/27 06:13:51;;;;;;;1999.90;999.90;;;;;;;4.51;51.19;96178.31;5113011;28;20505;-60
2023/11/27 06:16:18;;;;;;;1999.90;999.90;;;;;;;5.75;48.13;96179.09;5113587;28;20120;-62
2023/11/27 06:18:47;;;;;;;1999.90;999.90;;;;;;;6.38;45.56;96187.03;5113160;28;20444;-61
2023/11/27 06:21:14;;;;;;;1999.90;999.90;;;;;;;7.46;43.75;96156.19;5113507;28;20605;-63
2023/11/27 06:23:41;;;;;;;1999.90;999.90;;;;;;;8.35;41.33;96170.66;5113492;28;20142;-62
2023/11/27 06:26:12;;;;;;;1999.90;999.90;;;;;;;9.32;39.63;96181.06;5113431;28;20043;-64
2023/11/27 06:28:39;;;;;;;1999.90;999.90;;;;;;;9.76;38.17;96176.75;5113309;28;20046;-61
2023/11/27 06:31:07;;;;;;;1999.90;999.90;;;;;;;9.67;37.86;96174.50;5113368;28;20122;-61
2023/11/27 06:33:34;;;;;;;1999.90;999.90;;;;;;;9.81;37.85;96182.63;5113189;28;20117;-62
2023/11/27 06:36:01;;;;;;;1999.90;999.90;;;;;;;9.93;37.52;96193.50;5113243;28;20047;-65
2023/11/27 06:38:28;;;;;;;1999.90;999.90;;;;;;;9.81;37.53;96192.25;5113244;28;20075;-64
2023/11/27 06:40:56;;;;;;;1999.90;999.90;;;;;;;9.71;37.63;96203.06;5113249;28;20488;-64
2023/11/27 06:43:24;;;;;;;1999.90;999.90;;;;;;;9.75;37.95;96192.50;5113308;28;20048;-61
2023/11/27 06:45:52;;;;;;;1999.90;999.90;;;;;;;9.77;38.01;96204.56;5113321;28;20123;-60
2023/11/27 06:48:20;;;;;;;1999.90;999.90;;;;;;;10.03;37.63;96204.41;5113246;28;20048;-62
2023/11/27 06:50:48;;;;;;;1999.90;999.90;;;;;;;10.44;36.64;96214.91;5113168;28;20079;-64
2023/11/27 06:53:15;;;;;;;1999.90;999.90;;;;;;;10.94;36.15;96218.03;5113131;28;20087;-63
2023/11/27 06:55:42;;;;;;;1999.90;999.90;;;;;;;11.17;35.94;96229.22;5113252;28;20052;-64
2023/11/27 06:58:09;;;;;;;1999.90;999.90;;;;;;;10.58;36.31;96223.94;5113059;28;20557;-61
2023/11/27 07:00:38;;;;;;;1999.90;999.90;;;;;;;9.82;37.98;96223.50;5113094;28;20127;-62
2023/11/27 07:03:05;;;;;;;1999.90;999.90;;;;;;;9.52;37.35;96222.97;5113116;28;20062;-61
2023/11/27 07:05:33;;;;;;;1999.90;999.90;;;;;;;10.10;39.08;96234.63;5113218;28;20048;-60
2023/11/27 07:08:00;;;;;;;1999.90;999.90;;;;;;;11.12;36.52;96226.81;5112994;28;20070;-63
2023/11/27 07:10:29;;;;;;;1999.90;999.90;;;;;;;12.32;33.22;96220.38;5115528;28;20054;-64
2023/11/27 07:12:56;;;;;;;1999.90;999.90;;;;;;;13.55;31.83;96230.69;5116777;28;20405;-60
2023/11/27 07:15:23;;;;;;;1999.90;999.90;;;;;;;14.83;28.12;96228.72;5116654;28;20378;-64
2023/11/27 07:17:51;;;;;;;1999.90;999.90;;;;;;;15.26;27.45;96235.81;5116684;28;20505;-62
2023/11/27 07:20:19;;;;;;;1999.90;999.90;;;;;;;16.24;26.78;96239.38;5116407;28;20130;-64
2023/11/27 07:22:46;;;;;;;1999.90;999.90;;;;;;;17.07;24.89;96244.47;5116470;28;20400;-64
2023/11/27 07:25:15;;;;;;;1999.90;999.90;;;;;;;17.79;25.95;96243.00;5116490;28;20082;-60
2023/11/27 07:27:45;;;;;;;1999.90;999.90;;;;;;;18.31;26.27;96234.88;5116451;28;20047;-62
2023/11/27 07:30:13;;;;;;;1999.90;999.90;;;;;;;19.06;23.74;96255.78;5116409;28;20043;-64
2023/11/27 07:32:40;;;;;;;1999.90;999.90;;;;;;;18.65;23.47;96250.88;5116213;28;20431;-60
2023/11/27 07:35:11;;;;;;;1999.90;999.90;;;;;;;18.53;24.84;96255.28;5116170;28;20485;-62
2023/11/27 07:37:38;;;;;;;1999.90;999.90;;;;;;;17.70;23.46;96249.78;5116315;28;20096;-65
2023/11/27 07:40:10;;;;;;;1999.90;999.90;;;;;;;16.59;26.33;96253.81;5116261;28;20079;-64
2023/11/27 07:42:38;;;;;;;1999.90;999.90;;;;;;;16.75;26.07;96253.63;5116102;28;20055;-61
2023/11/27 07:45:07;;;;;;;1999.90;999.90;;;;;;;17.43;24.84;96262.22;5116123;28;20047;-62
2023/11/27 07:47:35;;;;;;;1999.90;999.90;;;;;;;16.48;25.01;96251.88;5116019;28;20043;-64
2023/11/27 07:50:02;;;;;;;1999.90;999.90;;;;;;;15.68;27.72;96258.75;5116161;28;20079;-63
2023/11/27 07:52:31;;;;;;;1999.90;999.90;;;;;;;16.10;27.54;96261.41;5116043;28;20113;-64
2023/11/27 07:54:58;;;;;;;1999.90;999.90;;;;;;;16.45;26.22;96260.00;5116033;28;20082;-62
2023/11/27 07:57:25;;;;;;;1999.90;999.90;;;;;;;17.24;24.88;96261.78;5116015;28;20122;-62
2023/11/27 07:59:52;;;;;;;1999.90;999.90;;;;;;;18.02;23.76;96266.94;5115900;28;20132;-62
2023/11/27 08:02:20;;;;;;;1999.90;999.90;;;;;;;18.93;23.12;96269.09;5116090;28;20146;-65
2023/11/27 08:04:47;;;;;;;1999.90;999.90;;;;;;;19.32;22.08;96269.69;5115693;28;20489;-63
2023/11/27 08:07:14;;;;;;;1999.90;999.90;;;;;;;19.47;21.06;96276.56;5115777;28;20058;-62
2023/11/27 08:09:46;;;;;;;1999.90;999.90;;;;;;;19.54;19.41;96272.47;5115725;28;20047;-62
2023/11/27 08:12:13;;;;;;;1999.90;999.90;;;;;;;19.47;21.57;96268.63;5115582;28;20056;-63
2023/11/27 08:14:41;;;;;;;1999.90;999.90;;;;;;;19.67;20.75;96270.53;5115768;28;20078;-65
2023/11/27 08:17:08;;;;;;;1999.90;999.90;;;;;;;19.76;21.78;96271.59;5115523;28;20062;-64
2023/11/27 08:19:36;;;;;;;1999.90;999.90;;;;;;;19.50;21.62;96271.03;5115290;28;20515;-63
2023/11/27 08:22:04;;;;;;;1999.90;999.90;;;;;;;18.91;21.97;96276.34;5115406;28;20134;-65
2023/11/27 08:24:33;;;;;;;1999.90;999.90;;;;;;;18.23;23.28;96275.13;5115482;28;20454;-63
2023/11/27 08:27:02;;;;;;;1999.90;999.90;;;;;;;17.70;23.99;96280.69;5115383;28;20040;-63
2023/11/27 08:29:30;;;;;;;1999.90;999.90;;;;;;;17.36;24.10;96276.81;5115368;28;20044;-62
2023/11/27 08:32:00;;;;;;;1999.90;999.90;;;;;;;16.42;25.10;96282.19;5115254;28;20493;-62
2023/11/27 08:34:28;;;;;;;1999.90;999.90;;;;;;;15.65;26.21;96270.31;5115177;28;20043;-64
2023/11/27 08:36:57;;;;;;;1999.90;999.90;;;;;;;15.17;26.87;96268.81;5115112;28;20139;-63
2023/11/27 08:39:24;;;;;;;1999.90;999.90;;;;;;;14.57;27.59;96278.50;5115122;28;20066;-63
2023/11/27 08:41:51;;;;;;;1999.90;999.90;;;;;;;13.78;29.58;96279.34;5115236;28;20048;-63
2023/11/27 08:44:20;;;;;;;1999.90;999.90;;;;;;;12.99;30.88;96276.50;5114922;28;20058;-61
2023/11/27 08:46:47;;;;;;;1999.90;999.90;;;;;;;11.93;32.44;96277.28;5114985;28;20089;-63
2023/11/27 08:49:15;;;;;;;1999.90;999.90;;;;;;;11.24;33.81;96277.78;5114834;28;20051;-62
2023/11/27 08:51:46;;;;;;;1999.90;999.90;;;;;;;10.86;34.40;96278.53;5114903;28;20044;-62
2023/11/27 08:54:13;;;;;;;1999.90;999.90;;;;;;;10.18;35.25;96271.72;5114807;28;20047;-63
2023/11/27 08:56:43;;;;;;;1999.90;999.90;;;;;;;9.72;35.76;96282.25;5114798;28;20052;-61
2023/11/27 08:59:12;;;;;;;1999.90;999.90;;;;;;;9.37;37.60;96268.78;5114830;28;20048;-61
2023/11/27 09:01:41;;;;;;;1999.90;999.90;;;;;;;8.95;38.87;96276.38;5114584;28;20058;-60
2023/11/27 09:04:09;;;;;;;1999.90;999.90;;;;;;;8.57;40.21;96285.47;5114706;28;20047;-64
2023/11/27 09:06:37;;;;;;;1999.90;999.90;;;;;;;8.08;41.67;96278.38;5114625;28;20044;-60
2023/11/27 09:09:06;;;;;;;1999.90;999.90;;;;;;;8.04;40.44;96276.75;5114558;28;20126;-61
2023/11/27 09:11:33;;;;;;;1999.90;999.90;;;;;;;7.90;40.60;96282.41;5114524;28;20071;-61
2023/11/27 09:14:00;;;;;;;1999.90;999.90;;;;;;;7.89;40.13;96272.03;5114375;28;20489;-64
2023/11/27 09:16:28;;;;;;;1999.90;999.90;;;;;;;7.77;38.54;96279.31;5114259;28;20043;-62
2023/11/27 09:18:56;;;;;;;1999.90;999.90;;;;;;;7.52;39.17;96268.78;5114043;28;20054;-64
2023/11/27 09:21:23;;;;;;;1999.90;999.90;;;;;;;7.23;38.30;96276.59;5114305;28;20090;-64
2023/11/27 09:23:53;;;;;;;1999.90;999.90;;;;;;;7.05;39.91;96264.94;5114195;28;20047;-65
2023/11/27 09:26:20;;;;;;;1999.90;999.90;;;;;;;6.96;39.70;96263.47;5114206;28;20431;-61
2023/11/27 09:28:48;;;;;;;1999.90;999.90;;;;;;;6.76;41.82;96264.00;5114100;28;20100;-65
2023/11/27 09:31:17;;;;;;;1999.90;999.90;;;;;;;6.78;43.98;96264.81;5113993;28;20480;-63
2023/11/27 09:33:45;;;;;;;1999.90;999.90;;;;;;;6.42;44.07;96261.41;5113580;28;20039;-65
2023/11/27 09:36:15;;;;;;;1999.90;999.90;;;;;;;6.39;42.93;96250.25;5114103;28;20039;-63
2023/11/27 09:38:43;;;;;;;1999.90;999.90;;;;;;;6.06;43.57;96236.31;5114140;28;20047;-62
2023/11/27 09:41:11;;;;;;;1999.90;999.90;;;;;;;5.94;44.20;96250.41;5113995;28;20043;-62
2023/11/27 09:43:40;;;;;;;1999.90;999.90;;;;;;;5.81;46.43;96249.88;5113650;28;20143;-64
2023/11/27 09:46:10;;;;;;;1999.90;999.90;;;;;;;5.47;46.36;96254.97;5113735;28;20043;-61
2023/11/27 09:48:41;;;;;;;1999.90;999.90;;;;;;;5.51;45.68;96249.69;5113810;28;20048;-66
2023/11/27 09:51:13;;;;;;;1999.90;999.90;;;;;;;5.79;45.00;96256.84;5113798;28;20122;-63
2023/11/27 09:53:49;;;;;;;1999.90;999.90;;;;;;;5.86;42.69;96252.34;5113833;28;20519;-64
2023/11/27 09:56:17;;;;;;;1999.90;999.90;;;;;;;6.03;41.36;96249.38;5113791;28;20109;-64
2023/11/27 09:58:45;;;;;;;1999.90;999.90;;;;;;;5.96;43.74;96255.56;5113687;28;20039;-66
2023/11/27 10:01:13;;;;;;;1999.90;999.90;;;;;;;5.66;44.27;96256.28;5113686;28;20047;-66
2023/11/27 10:03:40;;;;;;;1999.90;999.90;;;;;;;5.63;46.29;96258.94;5113567;28;20051;-64
2023/11/27 10:06:08;;;;;;;1999.90;999.90;;;;;;;5.51;44.55;96261.81;5113630;28;20061;-64
2023/11/27 10:08:36;;;;;;;1999.90;999.90;;;;;;;5.33;43.94;96258.75;5113505;28;20051;-61
2023/11/27 10:11:06;;;;;;;1999.90;999.90;;;;;;;5.46;41.98;96259.31;5113578;28;20456;-65
2023/11/27 10:13:34;;;;;;;1999.90;999.90;;;;;;;5.65;41.87;96256.31;5113428;28;20047;-65
2023/11/27 10:16:05;;;;;;;1999.90;999.90;;;;;;;5.87;42.06;96254.06;5113420;28;20446;-66
2023/11/27 10:18:32;;;;;;;;;;;;;;;5.90;42.43;96258.34;5113948;28;20043;-60
2023/11/27 10:20:59;;;;;;;1999.90;999.90;;;;;;;5.50;44.68;96254.91;5113243;28;19966;-62
2023/11/27 10:23:28;;;;;;;1999.90;999.90;;;;;;;5.61;43.65;96252.06;5113325;28;20047;-65
2023/11/27 10:25:59;;;;;;;1999.90;999.90;;;;;;;5.71;42.76;96244.91;5113342;28;20074;-65
2023/11/27 10:28:41;;;;;;;1999.90;999.90;;;;;;;5.82;42.45;96246.38;5113279;28;20093;-62
2023/11/27 10:31:08;;;;;;;1999.90;999.90;;;;;;;5.76;43.75;96250.88;5113388;28;20105;-63
2023/11/27 10:33:36;;;;;;;1999.90;999.90;;;;;;;5.50;44.23;96253.16;5113271;28;20138;-64
2023/11/27 10:36:06;;;;;;;1999.90;999.90;;;;;;;5.49;45.13;96251.47;5113371;28;20047;-63
2023/11/27 10:38:36;;;;;;;1999.90;999.90;;;;;;;5.47;42.21;96249.78;5113067;28;20047;-63
2023/11/27 10:41:05;;;;;;;1999.90;999.90;;;;;;;5.60;42.26;96229.63;5113211;28;20048;-64
2023/11/27 10:43:35;;;;;;;1999.90;999.90;;;;;;;5.78;41.92;96231.78;5114299;28;20413;-64
2023/11/27 10:46:07;;;;;;;1999.90;999.90;;;;;;;5.82;42.21;96230.78;5117258;28;20043;-60
2023/11/27 10:48:35;;;;;;;1999.90;999.90;;;;;;;5.93;41.63;96232.31;5117274;28;20056;-62
2023/11/27 10:51:04;;;;;;;1999.90;999.90;;;;;;;5.97;42.37;96233.94;5117211;28;20058;-61
2023/11/27 10:53:32;;;;;;;1999.90;999.90;;;;;;;5.96;41.80;96229.59;5117169;28;20082;-65
2023/11/27 10:56:03;;;;;;;1999.90;999.90;;;;;;;6.02;41.99;96223.44;5117117;28;20122;-62
2023/11/27 10:58:30;;;;;;;;;;;;;;;5.87;44.53;96227.25;5117506;28;20055;-62
2023/11/27 11:01:01;;;;;;;1999.90;999.90;;;;;;;5.43;44.85;96220.47;5116949;28;19964;-64